sensor_id;sensor_type;location;lat;lon;timestamp;pressure;altitude;pressure_sealevel;temperature;humidity
49297;BME280;35163;48.878;18.040;2024-01-15T00:00:17;96986.00;;;6.04;46.39
49297;BME280;35163;48.878;18.040;2024-01-15T00:02:44;96983.50;;;6.03;46.52
49297;BME280;35163;48.878;18.040;2024-01-15T00:05:11;96972.53;;;5.99;46.04
49297;BME280;35163;48.878;18.040;2024-01-15T00:07:38;96982.81;;;5.98;46.33
49297;BME280;35163;48.878;18.040;2024-01-15T00:10:05;96973.41;;;5.98;46.16
49297;BME280;35163;48.878;18.040;2024-01-15T00:12:32;96977.69;;;5.98;46.27
49297;BME280;35163;48.878;18.040;2024-01-15T00:14:59;96963.31;;;5.93;46.27
49297;BME280;35163;48.878;18.040;2024-01-15T00:17:26;96963.38;;;5.92;46.68
49297;BME280;35163;48.878;18.040;2024-01-15T00:19:52;96961.69;;;5.91;46.45
49297;BME280;35163;48.878;18.040;2024-01-15T00:22:19;96950.66;;;5.89;46.53
49297;BME280;35163;48.878;18.040;2024-01-15T00:24:46;96956.66;;;5.88;46.58
49297;BME280;35163;48.878;18.040;2024-01-15T00:27:13;96963.56;;;5.86;46.48
49297;BME280;35163;48.878;18.040;2024-01-15T00:29:40;96954.22;;;5.84;46.59
49297;BME280;35163;48.878;18.040;2024-01-15T00:32:06;96956.00;;;5.82;46.66
49297;BME280;35163;48.878;18.040;2024-01-15T00:34:33;96957.78;;;5.80;46.66
49297;BME280;35163;48.878;18.040;2024-01-15T00:37:00;96945.84;;;5.79;46.42
49297;BME280;35163;48.878;18.040;2024-01-15T00:39:27;96937.38;;;5.77;46.29
49297;BME280;35163;48.878;18.040;2024-01-15T00:41:53;96928.91;;;5.75;46.49
49297;BME280;35163;48.878;18.040;2024-01-15T00:44:20;96939.25;;;5.72;46.73
49297;BME280;35163;48.878;18.040;2024-01-15T00:46:47;96935.94;;;5.70;46.53
49297;BME280;35163;48.878;18.040;2024-01-15T00:49:13;96941.09;;;5.68;46.70
49297;BME280;35163;48.878;18.040;2024-01-15T00:51:41;96945.47;;;5.66;46.67
49297;BME280;35163;48.878;18.040;2024-01-15T00:54:08;96937.81;;;5.65;46.32
49297;BME280;35163;48.878;18.040;2024-01-15T00:56:35;96933.63;;;5.62;46.48
49297;BME280;35163;48.878;18.040;2024-01-15T00:59:02;96935.41;;;5.60;46.65
49297;BME280;35163;48.878;18.040;2024-01-15T01:01:28;96938.13;;;5.55;46.56
49297;BME280;35163;48.878;18.040;2024-01-15T01:03:56;96932.22;;;5.53;46.54
49297;BME280;35163;48.878;18.040;2024-01-15T01:06:23;96928.88;;;5.51;46.76
49297;BME280;35163;48.878;18.040;2024-01-15T01:08:50;96915.34;;;5.47;46.80
49297;BME280;35163;48.878;18.040;2024-01-15T01:11:17;96924.00;;;5.43;46.57
49297;BME280;35163;48.878;18.040;2024-01-15T01:13:43;96926.63;;;5.42;46.89
49297;BME280;35163;48.878;18.040;2024-01-15T01:16:10;96915.66;;;5.38;46.97
49297;BME280;35163;48.878;18.040;2024-01-15T01:18:37;96904.53;;;5.38;46.96
49297;BME280;35163;48.878;18.040;2024-01-15T01:21:04;96891.03;;;5.34;46.94
49297;BME280;35163;48.878;18.040;2024-01-15T01:23:31;96894.41;;;5.34;46.95
49297;BME280;35163;48.878;18.040;2024-01-15T01:25:57;96887.63;;;5.33;46.94
49297;BME280;35163;48.878;18.040;2024-01-15T01:28:24;96889.38;;;5.31;46.87
49297;BME280;35163;48.878;18.040;2024-01-15T01:30:51;96883.47;;;5.29;46.97
49297;BME280;35163;48.878;18.040;2024-01-15T01:33:18;96882.59;;;5.30;47.13
49297;BME280;35163;48.878;18.040;2024-01-15T01:35:45;96874.97;;;5.29;47.00
49297;BME280;35163;48.878;18.040;2024-01-15T01:38:13;96867.31;;;5.27;47.31
49297;BME280;35163;48.878;18.040;2024-01-15T01:40:39;96868.22;;;5.26;47.17
49297;BME280;35163;48.878;18.040;2024-01-15T01:43:06;96869.88;;;5.27;47.62
49297;BME280;35163;48.878;18.040;2024-01-15T01:45:35;96865.66;;;5.26;47.23
49297;BME280;35163;48.878;18.040;2024-01-15T01:48:01;96867.38;;;5.26;47.11
49297;BME280;35163;48.878;18.040;2024-01-15T01:50:29;96862.28;;;5.24;47.32
49297;BME280;35163;48.878;18.040;2024-01-15T01:52:58;96868.25;;;5.25;47.31
49297;BME280;35163;48.878;18.040;2024-01-15T01:55:27;96861.41;;;5.25;47.21
49297;BME280;35163;48.878;18.040;2024-01-15T01:57:56;96852.03;;;5.24;47.26
49297;BME280;35163;48.878;18.040;2024-01-15T02:00:23;96846.91;;;5.24;47.23
49297;BME280;35163;48.878;18.040;2024-01-15T02:02:50;96846.09;;;5.23;47.15
49297;BME280;35163;48.878;18.040;2024-01-15T02:05:20;96843.56;;;5.22;47.36
49297;BME280;35163;48.878;18.040;2024-01-15T02:07:48;96839.28;;;5.22;47.33
49297;BME280;35163;48.878;18.040;2024-01-15T02:10:15;96823.97;;;5.21;47.49
49297;BME280;35163;48.878;18.040;2024-01-15T02:12:42;96819.75;;;5.20;47.30
49297;BME280;35163;48.878;18.040;2024-01-15T02:15:10;96819.84;;;5.17;47.38
49297;BME280;35163;48.878;18.040;2024-01-15T02:17:59;96815.53;;;5.17;47.79
49297;BME280;35163;48.878;18.040;2024-01-15T02:20:27;96813.03;;;5.16;47.41
49297;BME280;35163;48.878;18.040;2024-01-15T02:23:00;96827.56;;;5.15;47.59
49297;BME280;35163;48.878;18.040;2024-01-15T02:25:27;96825.00;;;5.15;47.49
49297;BME280;35163;48.878;18.040;2024-01-15T02:27:54;96820.78;;;5.14;47.56
49297;BME280;35163;48.878;18.040;2024-01-15T02:30:22;96818.22;;;5.14;47.54
49297;BME280;35163;48.878;18.040;2024-01-15T02:32:49;96812.25;;;5.14;47.62
49297;BME280;35163;48.878;18.040;2024-01-15T02:35:16;96807.19;;;5.12;47.34
49297;BME280;35163;48.878;18.040;2024-01-15T02:37:42;96802.97;;;5.11;47.57
49297;BME280;35163;48.878;18.040;2024-01-15T02:40:09;96803.03;;;5.09;47.50
49297;BME280;35163;48.878;18.040;2024-01-15T02:42:36;96801.31;;;5.08;47.55
49297;BME280;35163;48.878;18.040;2024-01-15T02:45:03;96797.09;;;5.07;47.75
49297;BME280;35163;48.878;18.040;2024-01-15T02:47:30;96803.94;;;5.07;47.75
49297;BME280;35163;48.878;18.040;2024-01-15T02:49:57;96808.25;;;5.06;47.61
49297;BME280;35163;48.878;18.040;2024-01-15T02:52:24;96797.22;;;5.04;47.77
49297;BME280;35163;48.878;18.040;2024-01-15T02:54:50;96798.09;;;5.03;47.60
49297;BME280;35163;48.878;18.040;2024-01-15T02:57:17;96793.88;;;5.02;47.88
49297;BME280;35163;48.878;18.040;2024-01-15T02:59:44;96788.78;;;5.01;47.75
49297;BME280;35163;48.878;18.040;2024-01-15T03:02:10;96784.53;;;5.01;47.86
49297;BME280;35163;48.878;18.040;2024-01-15T03:04:37;96776.91;;;4.98;47.93
49297;BME280;35163;48.878;18.040;2024-01-15T03:07:04;96771.78;;;4.98;48.15
49297;BME280;35163;48.878;18.040;2024-01-15T03:09:31;96755.66;;;4.96;47.87
49297;BME280;35163;48.878;18.040;2024-01-15T03:11:58;96759.09;;;4.95;47.97
49297;BME280;35163;48.878;18.040;2024-01-15T03:14:24;96758.31;;;4.93;48.22
49297;BME280;35163;48.878;18.040;2024-01-15T03:16:53;96745.50;;;4.93;48.03
49297;BME280;35163;48.878;18.040;2024-01-15T03:19:19;96737.06;;;4.91;47.91
49297;BME280;35163;48.878;18.040;2024-01-15T03:21:46;96718.34;;;4.89;47.96
49297;BME280;35163;48.878;18.040;2024-01-15T03:24:13;96745.63;;;4.90;48.08
49297;BME280;35163;48.878;18.040;2024-01-15T03:26:40;96734.63;;;4.88;47.96
49297;BME280;35163;48.878;18.040;2024-01-15T03:29:07;96726.94;;;4.88;48.15
49297;BME280;35163;48.878;18.040;2024-01-15T03:31:33;96750.81;;;4.88;48.14
49297;BME280;35163;48.878;18.040;2024-01-15T03:34:00;96744.88;;;4.86;48.18
49297;BME280;35163;48.878;18.040;2024-01-15T03:36:27;96736.38;;;4.85;48.19
49297;BME280;35163;48.878;18.040;2024-01-15T03:38:54;96734.50;;;4.91;49.08
49297;BME280;35163;48.878;18.040;2024-01-15T03:41:20;96735.06;;;4.99;49.49
49297;BME280;35163;48.878;18.040;2024-01-15T03:43:47;96722.06;;;5.04;49.46
49297;BME280;35163;48.878;18.040;2024-01-15T03:46:14;96731.75;;;5.19;55.64
49297;BME280;35163;48.878;18.040;2024-01-15T03:48:41;96727.06;;;5.31;49.93
49297;BME280;35163;48.878;18.040;2024-01-15T03:51:08;96723.22;;;5.43;49.63
49297;BME280;35163;48.878;18.040;2024-01-15T03:53:34;96738.25;;;5.52;48.75
49297;BME280;35163;48.878;18.040;2024-01-15T03:56:01;96736.28;;;5.59;48.67
49297;BME280;35163;48.878;18.040;2024-01-15T03:58:27;96737.66;;;5.68;48.33
49297;BME280;35163;48.878;18.040;2024-01-15T04:00:54;96746.03;;;5.73;48.28
49297;BME280;35163;48.878;18.040;2024-01-15T04:03:21;96743.03;;;5.84;48.13
49297;BME280;35163;48.878;18.040;2024-01-15T04:05:48;96734.25;;;5.90;47.52
49297;BME280;35163;48.878;18.040;2024-01-15T04:08:14;96746.75;;;5.99;47.92
49297;BME280;35163;48.878;18.040;2024-01-15T04:10:41;96743.03;;;6.06;47.79
49297;BME280;35163;48.878;18.040;2024-01-15T04:13:08;96737.69;;;6.13;47.75
49297;BME280;35163;48.878;18.040;2024-01-15T04:15:35;96754.47;;;6.20;47.51
49297;BME280;35163;48.878;18.040;2024-01-15T04:18:03;96755.03;;;6.28;46.94
49297;BME280;35163;48.878;18.040;2024-01-15T04:20:30;96754.69;;;6.36;46.73
49297;BME280;35163;48.878;18.040;2024-01-15T04:22:56;96745.00;;;6.43;46.69
49297;BME280;35163;48.878;18.040;2024-01-15T04:25:23;96738.72;;;6.50;46.47
49297;BME280;35163;48.878;18.040;2024-01-15T04:27:50;96734.22;;;6.55;46.27
49297;BME280;35163;48.878;18.040;2024-01-15T04:30:16;96738.97;;;6.65;46.13
49297;BME280;35163;48.878;18.040;2024-01-15T04:32:43;96733.69;;;6.68;46.50
49297;BME280;35163;48.878;18.040;2024-01-15T04:35:10;96732.59;;;6.74;46.18
49297;BME280;35163;48.878;18.040;2024-01-15T04:37:37;96733.78;;;6.46;45.61
49297;BME280;35163;48.878;18.040;2024-01-15T04:40:05;96729.53;;;6.24;46.36
49297;BME280;35163;48.878;18.040;2024-01-15T04:42:32;96723.22;;;6.10;46.94
49297;BME280;35163;48.878;18.040;2024-01-15T04:44:59;96724.00;;;6.12;48.34
49297;BME280;35163;48.878;18.040;2024-01-15T04:47:26;96718.94;;;6.11;48.59
49297;BME280;35163;48.878;18.040;2024-01-15T04:49:53;96718.16;;;6.08;49.58
49297;BME280;35163;48.878;18.040;2024-01-15T04:52:19;96720.78;;;6.07;51.07
49297;BME280;35163;48.878;18.040;2024-01-15T04:54:46;96728.56;;;6.05;51.34
49297;BME280;35163;48.878;18.040;2024-01-15T04:57:13;96720.09;;;6.02;52.10
49297;BME280;35163;48.878;18.040;2024-01-15T04:59:40;96734.72;;;6.00;53.27
49297;BME280;35163;48.878;18.040;2024-01-15T05:02:06;96728.78;;;5.99;54.85
49297;BME280;35163;48.878;18.040;2024-01-15T05:04:33;96716.03;;;5.96;56.92
49297;BME280;35163;48.878;18.040;2024-01-15T05:07:00;96717.03;;;5.93;58.42
49297;BME280;35163;48.878;18.040;2024-01-15T05:09:27;96717.09;;;5.92;58.94
49297;BME280;35163;48.878;18.040;2024-01-15T05:11:58;96713.81;;;5.88;57.68
49297;BME280;35163;48.878;18.040;2024-01-15T05:14:25;96703.66;;;5.85;58.74
49297;BME280;35163;48.878;18.040;2024-01-15T05:16:52;96697.81;;;5.81;57.97
49297;BME280;35163;48.878;18.040;2024-01-15T05:19:18;96698.75;;;5.79;58.15
49297;BME280;35163;48.878;18.040;2024-01-15T05:21:46;96703.22;;;5.75;57.58
49297;BME280;35163;48.878;18.040;2024-01-15T05:24:12;96705.00;;;5.73;58.40
49297;BME280;35163;48.878;18.040;2024-01-15T05:26:39;96707.69;;;5.70;56.96
49297;BME280;35163;48.878;18.040;2024-01-15T05:29:06;96707.78;;;5.67;57.80
49297;BME280;35163;48.878;18.040;2024-01-15T05:31:32;96710.41;;;5.65;57.98
49297;BME280;35163;48.878;18.040;2024-01-15T05:33:59;96707.19;;;5.60;57.08
49297;BME280;35163;48.878;18.040;2024-01-15T05:36:26;96704.75;;;5.57;55.65
49297;BME280;35163;48.878;18.040;2024-01-15T05:38:53;96705.72;;;5.54;56.74
49297;BME280;35163;48.878;18.040;2024-01-15T05:41:20;96704.94;;;5.52;56.32
49297;BME280;35163;48.878;18.040;2024-01-15T05:43:46;96705.19;;;5.44;55.67
49297;BME280;35163;48.878;18.040;2024-01-15T05:46:13;96713.81;;;5.43;54.11
49297;BME280;35163;48.878;18.040;2024-01-15T05:48:40;96714.78;;;5.39;55.20
49297;BME280;35163;48.878;18.040;2024-01-15T05:51:07;96710.69;;;5.35;54.60
49297;BME280;35163;48.878;18.040;2024-01-15T05:53:34;96721.13;;;5.30;53.95
49297;BME280;35163;48.878;18.040;2024-01-15T05:56:00;96726.34;;;5.27;55.19
49297;BME280;35163;48.878;18.040;2024-01-15T05:58:27;96742.81;;;5.21;54.47
49297;BME280;35163;48.878;18.040;2024-01-15T06:00:54;96755.72;;;5.18;53.89
49297;BME280;35163;48.878;18.040;2024-01-15T06:03:21;96752.50;;;5.13;52.52
49297;BME280;35163;48.878;18.040;2024-01-15T06:05:47;96745.88;;;5.07;52.81
49297;BME280;35163;48.878;18.040;2024-01-15T06:08:14;96743.53;;;5.01;50.99
49297;BME280;35163;48.878;18.040;2024-01-15T06:10:41;96735.16;;;4.96;52.69
49297;BME280;35163;48.878;18.040;2024-01-15T06:13:08;96742.91;;;4.94;53.27
49297;BME280;35163;48.878;18.040;2024-01-15T06:15:35;96753.34;;;4.88;52.88
49297;BME280;35163;48.878;18.040;2024-01-15T06:18:01;96759.44;;;4.85;53.45
49297;BME280;35163;48.878;18.040;2024-01-15T06:20:28;96746.75;;;4.82;53.61
49297;BME280;35163;48.878;18.040;2024-01-15T06:22:55;96745.13;;;4.80;53.63
49297;BME280;35163;48.878;18.040;2024-01-15T06:25:21;96742.56;;;4.80;54.10
49297;BME280;35163;48.878;18.040;2024-01-15T06:27:48;96729.00;;;4.76;54.37
49297;BME280;35163;48.878;18.040;2024-01-15T06:30:15;96735.91;;;4.74;54.16
49297;BME280;35163;48.878;18.040;2024-01-15T06:32:42;96740.22;;;4.73;54.32
49297;BME280;35163;48.878;18.040;2024-01-15T06:35:09;96741.94;;;4.73;54.61
49297;BME280;35163;48.878;18.040;2024-01-15T06:37:37;96738.63;;;4.69;54.41
49297;BME280;35163;48.878;18.040;2024-01-15T06:40:04;96745.47;;;4.69;53.89
49297;BME280;35163;48.878;18.040;2024-01-15T06:42:32;96761.75;;;4.68;53.88
49297;BME280;35163;48.878;18.040;2024-01-15T06:44:59;96772.09;;;4.65;54.28
49297;BME280;35163;48.878;18.040;2024-01-15T06:47:25;96765.31;;;4.64;54.42
49297;BME280;35163;48.878;18.040;2024-01-15T06:49:52;96760.19;;;4.64;54.28
49297;BME280;35163;48.878;18.040;2024-01-15T06:52:19;96763.72;;;4.59;53.95
49297;BME280;35163;48.878;18.040;2024-01-15T06:54:46;96767.25;;;4.55;53.48
49297;BME280;35163;48.878;18.040;2024-01-15T06:57:12;96768.06;;;4.57;53.51
49297;BME280;35163;48.878;18.040;2024-01-15T06:59:39;96761.38;;;4.53;52.97
49297;BME280;35163;48.878;18.040;2024-01-15T07:02:06;96775.06;;;4.52;52.56
49297;BME280;35163;48.878;18.040;2024-01-15T07:04:32;96769.16;;;4.50;53.04
49297;BME280;35163;48.878;18.040;2024-01-15T07:06:59;96767.53;;;4.47;52.31
49297;BME280;35163;48.878;18.040;2024-01-15T07:09:26;96764.19;;;4.45;52.89
49297;BME280;35163;48.878;18.040;2024-01-15T07:11:53;96757.34;;;4.46;53.03
49297;BME280;35163;48.878;18.040;2024-01-15T07:14:19;96760.78;;;4.45;52.45
49297;BME280;35163;48.878;18.040;2024-01-15T07:16:46;96769.34;;;4.44;52.56
49297;BME280;35163;48.878;18.040;2024-01-15T07:19:14;96768.47;;;4.45;52.56
49297;BME280;35163;48.878;18.040;2024-01-15T07:21:41;96774.53;;;4.42;51.52
49297;BME280;35163;48.878;18.040;2024-01-15T07:24:09;96772.03;;;4.41;51.72
49297;BME280;35163;48.878;18.040;2024-01-15T07:26:37;96772.03;;;4.41;51.33
49297;BME280;35163;48.878;18.040;2024-01-15T07:29:04;96767.78;;;4.40;51.31
49297;BME280;35163;48.878;18.040;2024-01-15T07:31:30;96789.16;;;4.38;50.31
49297;BME280;35163;48.878;18.040;2024-01-15T07:33:57;96795.16;;;4.37;50.10
49297;BME280;35163;48.878;18.040;2024-01-15T07:36:24;96801.94;;;4.38;50.70
49297;BME280;35163;48.878;18.040;2024-01-15T07:38:51;96793.38;;;4.40;50.84
49297;BME280;35163;48.878;18.040;2024-01-15T07:41:18;96799.34;;;4.40;50.96
49297;BME280;35163;48.878;18.040;2024-01-15T07:43:44;96800.19;;;4.41;50.42
49297;BME280;35163;48.878;18.040;2024-01-15T07:46:11;96796.72;;;4.42;50.54
49297;BME280;35163;48.878;18.040;2024-01-15T07:48:38;96818.09;;;4.41;50.65
49297;BME280;35163;48.878;18.040;2024-01-15T07:51:05;96810.41;;;4.41;50.47
49297;BME280;35163;48.878;18.040;2024-01-15T07:53:31;96807.81;;;4.42;50.53
49297;BME280;35163;48.878;18.040;2024-01-15T07:55:58;96809.50;;;4.42;50.15
49297;BME280;35163;48.878;18.040;2024-01-15T07:58:25;96809.50;;;4.42;49.89
49297;BME280;35163;48.878;18.040;2024-01-15T08:00:51;96805.25;;;4.42;50.31
49297;BME280;35163;48.878;18.040;2024-01-15T08:03:19;96800.91;;;4.44;49.88
49297;BME280;35163;48.878;18.040;2024-01-15T08:05:46;96809.41;;;4.45;49.36
49297;BME280;35163;48.878;18.040;2024-01-15T08:08:13;96821.34;;;4.46;49.81
49297;BME280;35163;48.878;18.040;2024-01-15T08:10:40;96827.25;;;4.48;49.76
49297;BME280;35163;48.878;18.040;2024-01-15T08:13:06;96819.53;;;4.49;49.57
49297;BME280;35163;48.878;18.040;2024-01-15T08:15:35;96823.69;;;4.52;49.26
49297;BME280;35163;48.878;18.040;2024-01-15T08:18:02;96824.50;;;4.54;48.91
49297;BME280;35163;48.878;18.040;2024-01-15T08:20:29;96821.13;;;4.52;48.82
49297;BME280;35163;48.878;18.040;2024-01-15T08:22:57;96818.53;;;4.54;48.27
49297;BME280;35163;48.878;18.040;2024-01-15T08:25:24;96819.25;;;4.57;48.76
49297;BME280;35163;48.878;18.040;2024-01-15T08:27:50;96820.94;;;4.58;47.78
49297;BME280;35163;48.878;18.040;2024-01-15T08:30:17;96809.88;;;4.58;48.22
49297;BME280;35163;48.878;18.040;2024-01-15T08:32:45;96815.78;;;4.60;47.93
49297;BME280;35163;48.878;18.040;2024-01-15T08:35:12;96816.59;;;4.60;47.66
49297;BME280;35163;48.878;18.040;2024-01-15T08:37:39;96824.28;;;4.60;47.49
49297;BME280;35163;48.878;18.040;2024-01-15T08:40:06;96829.34;;;4.62;47.41
49297;BME280;35163;48.878;18.040;2024-01-15T08:42:33;96831.03;;;4.63;47.82
49297;BME280;35163;48.878;18.040;2024-01-15T08:45:00;96831.88;;;4.64;47.40
49297;BME280;35163;48.878;18.040;2024-01-15T08:47:27;96839.50;;;4.65;47.21
49297;BME280;35163;48.878;18.040;2024-01-15T08:49:54;96831.78;;;4.67;47.39
49297;BME280;35163;48.878;18.040;2024-01-15T08:52:21;96849.59;;;4.70;47.26
49297;BME280;35163;48.878;18.040;2024-01-15T08:54:47;96853.81;;;4.71;46.92
49297;BME280;35163;48.878;18.040;2024-01-15T08:57:14;96853.69;;;4.74;47.47
49297;BME280;35163;48.878;18.040;2024-01-15T08:59:41;96849.38;;;4.76;47.67
49297;BME280;35163;48.878;18.040;2024-01-15T09:02:08;96856.94;;;4.79;47.42
49297;BME280;35163;48.878;18.040;2024-01-15T09:04:35;96854.31;;;4.82;47.25
49297;BME280;35163;48.878;18.040;2024-01-15T09:07:02;96847.50;;;4.81;46.38
49297;BME280;35163;48.878;18.040;2024-01-15T09:09:28;96855.19;;;4.81;46.49
49297;BME280;35163;48.878;18.040;2024-01-15T09:11:55;96849.22;;;4.81;46.45
49297;BME280;35163;48.878;18.040;2024-01-15T09:14:22;96837.16;;;4.84;46.87
49297;BME280;35163;48.878;18.040;2024-01-15T09:17:06;96839.63;;;4.88;46.31
49297;BME280;35163;48.878;18.040;2024-01-15T09:19:32;96841.19;;;4.92;46.42
49297;BME280;35163;48.878;18.040;2024-01-15T09:21:59;96831.72;;;4.94;46.66
49297;BME280;35163;48.878;18.040;2024-01-15T09:24:26;96834.19;;;4.97;46.19
49297;BME280;35163;48.878;18.040;2024-01-15T09:26:55;96833.25;;;5.00;46.63
49297;BME280;35163;48.878;18.040;2024-01-15T09:29:22;96827.16;;;5.02;46.49
49297;BME280;35163;48.878;18.040;2024-01-15T09:31:50;96831.31;;;5.06;46.35
49297;BME280;35163;48.878;18.040;2024-01-15T09:34:18;96837.13;;;5.12;46.73
49297;BME280;35163;48.878;18.040;2024-01-15T09:36:44;96837.81;;;5.15;46.32
49297;BME280;35163;48.878;18.040;2024-01-15T09:39:12;96830.09;;;5.17;46.25
49297;BME280;35163;48.878;18.040;2024-01-15T09:41:39;96825.75;;;5.19;46.13
49297;BME280;35163;48.878;18.040;2024-01-15T09:44:05;96823.06;;;5.22;46.06
49297;BME280;35163;48.878;18.040;2024-01-15T09:46:37;96820.47;;;5.23;46.07
49297;BME280;35163;48.878;18.040;2024-01-15T09:49:04;96820.34;;;5.27;46.30
49297;BME280;35163;48.878;18.040;2024-01-15T09:51:32;96821.09;;;5.30;45.69
49297;BME280;35163;48.878;18.040;2024-01-15T09:53:59;96810.72;;;5.33;45.70
49297;BME280;35163;48.878;18.040;2024-01-15T09:56:26;96800.34;;;5.37;45.50
49297;BME280;35163;48.878;18.040;2024-01-15T09:58:54;96806.22;;;5.40;45.54
49297;BME280;35163;48.878;18.040;2024-01-15T10:01:22;96803.59;;;5.42;45.47
49297;BME280;35163;48.878;18.040;2024-01-15T10:03:50;96800.91;;;5.45;45.51
49297;BME280;35163;48.878;18.040;2024-01-15T10:06:17;96808.47;;;5.48;45.36
49297;BME280;35163;48.878;18.040;2024-01-15T10:08:50;96810.00;;;5.54;45.41
49297;BME280;35163;48.878;18.040;2024-01-15T10:11:17;96801.34;;;5.56;45.74
49297;BME280;35163;48.878;18.040;2024-01-15T10:13:44;96792.66;;;5.61;45.65
49297;BME280;35163;48.878;18.040;2024-01-15T10:16:13;96784.84;;;5.64;45.24
49297;BME280;35163;48.878;18.040;2024-01-15T10:18:40;96790.63;;;5.69;45.44
49297;BME280;35163;48.878;18.040;2024-01-15T10:21:07;96795.63;;;5.72;45.07
49297;BME280;35163;48.878;18.040;2024-01-15T10:23:34;96791.28;;;5.74;44.98
49297;BME280;35163;48.878;18.040;2024-01-15T10:26:05;96795.41;;;5.78;45.02
49297;BME280;35163;48.878;18.040;2024-01-15T10:28:32;96788.47;;;5.80;44.58
49297;BME280;35163;48.878;18.040;2024-01-15T10:31:00;96787.47;;;5.84;44.87
49297;BME280;35163;48.878;18.040;2024-01-15T10:33:27;96777.88;;;5.90;44.96
49297;BME280;35163;48.878;18.040;2024-01-15T10:35:59;96776.97;;;5.91;44.19
49297;BME280;35163;48.878;18.040;2024-01-15T10:38:26;96776.91;;;5.92;44.62
49297;BME280;35163;48.878;18.040;2024-01-15T10:40:54;96784.56;;;5.94;44.37
49297;BME280;35163;48.878;18.040;2024-01-15T10:43:22;96778.41;;;5.98;44.63
49297;BME280;35163;48.878;18.040;2024-01-15T10:45:54;96780.03;;;6.01;44.48
49297;BME280;35163;48.878;18.040;2024-01-15T10:48:21;96775.66;;;6.03;44.73
49297;BME280;35163;48.878;18.040;2024-01-15T10:50:48;96777.31;;;6.05;44.60
49297;BME280;35163;48.878;18.040;2024-01-15T10:53:16;96780.59;;;6.09;44.75
49297;BME280;35163;48.878;18.040;2024-01-15T10:55:43;96780.53;;;6.11;44.73
49297;BME280;35163;48.878;18.040;2024-01-15T10:58:13;96782.13;;;6.13;44.63
49297;BME280;35163;48.878;18.040;2024-01-15T11:00:41;96770.97;;;6.14;44.47
49297;BME280;35163;48.878;18.040;2024-01-15T11:03:08;96775.13;;;6.17;44.73
49297;BME280;35163;48.878;18.040;2024-01-15T11:05:42;96768.34;;;6.16;44.43
49297;BME280;35163;48.878;18.040;2024-01-15T11:08:09;96767.38;;;6.18;44.41
49297;BME280;35163;48.878;18.040;2024-01-15T11:10:51;96761.44;;;6.18;44.20
49297;BME280;35163;48.878;18.040;2024-01-15T11:16:06;96763.88;;;6.21;44.38
49297;BME280;35163;48.878;18.040;2024-01-15T11:18:36;96765.53;;;6.22;44.20
49297;BME280;35163;48.878;18.040;2024-01-15T11:23:59;96757.81;;;6.22;44.02
49297;BME280;35163;48.878;18.040;2024-01-15T11:26:46;96766.31;;;6.24;43.86
49297;BME280;35163;48.878;18.040;2024-01-15T11:29:30;96770.72;;;6.20;43.80
49297;BME280;35163;48.878;18.040;2024-01-15T11:32:00;96768.09;;;6.22;43.67
49297;BME280;35163;48.878;18.040;2024-01-15T11:35:03;96765.47;;;6.24;43.48
49297;BME280;35163;48.878;18.040;2024-01-15T11:38:00;96764.66;;;6.23;43.78
49297;BME280;35163;48.878;18.040;2024-01-15T11:43:00;96763.75;;;6.24;44.12
49297;BME280;35163;48.878;18.040;2024-01-15T11:45:27;96760.31;;;6.24;43.83
49297;BME280;35163;48.878;18.040;2024-01-15T11:48:14;96759.38;;;6.26;43.96
49297;BME280;35163;48.878;18.040;2024-01-15T11:50:47;96749.13;;;6.26;43.93
49297;BME280;35163;48.878;18.040;2024-01-15T11:53:40;96746.53;;;6.26;43.60
49297;BME280;35163;48.878;18.040;2024-01-15T11:56:14;96737.22;;;6.24;43.89
49297;BME280;35163;48.878;18.040;2024-01-15T11:58:41;96730.31;;;6.26;43.86
49297;BME280;35163;48.878;18.040;2024-01-15T12:01:08;96733.66;;;6.28;43.83
49297;BME280;35163;48.878;18.040;2024-01-15T12:03:35;96734.50;;;6.28;43.96
49297;BME280;35163;48.878;18.040;2024-01-15T12:06:05;96728.44;;;6.29;44.12
49297;BME280;35163;48.878;18.040;2024-01-15T12:08:32;96736.00;;;6.32;43.83
49297;BME280;35163;48.878;18.040;2024-01-15T12:10:59;96735.09;;;6.34;44.02
49297;BME280;35163;48.878;18.040;2024-01-15T12:13:26;96730.75;;;6.36;44.10
49297;BME280;35163;48.878;18.040;2024-01-15T12:15:54;96721.25;;;6.38;44.50
49297;BME280;35163;48.878;18.040;2024-01-15T12:18:21;96717.75;;;6.40;44.00
49297;BME280;35163;48.878;18.040;2024-01-15T12:20:48;96708.28;;;6.41;44.32
49297;BME280;35163;48.878;18.040;2024-01-15T12:23:15;96704.78;;;6.43;44.36
49297;BME280;35163;48.878;18.040;2024-01-15T12:25:44;96697.88;;;6.44;44.20
49297;BME280;35163;48.878;18.040;2024-01-15T12:28:10;96692.72;;;6.46;44.28
49297;BME280;35163;48.878;18.040;2024-01-15T12:30:38;96687.44;;;6.49;44.35
49297;BME280;35163;48.878;18.040;2024-01-15T12:33:06;96675.34;;;6.51;44.05
49297;BME280;35163;48.878;18.040;2024-01-15T12:35:34;96673.56;;;6.53;44.35
49297;BME280;35163;48.878;18.040;2024-01-15T12:38:02;96670.91;;;6.54;44.35
49297;BME280;35163;48.878;18.040;2024-01-15T12:40:30;96668.28;;;6.56;44.17
49297;BME280;35163;48.878;18.040;2024-01-15T12:42:59;96664.81;;;6.57;43.98
49297;BME280;35163;48.878;18.040;2024-01-15T12:45:26;96673.31;;;6.59;44.17
49297;BME280;35163;48.878;18.040;2024-01-15T12:47:53;96678.44;;;6.59;43.75
49297;BME280;35163;48.878;18.040;2024-01-15T12:50:24;96677.59;;;6.59;43.81
49297;BME280;35163;48.878;18.040;2024-01-15T12:52:50;96677.66;;;6.57;43.82
49297;BME280;35163;48.878;18.040;2024-01-15T12:55:18;96670.81;;;6.58;43.78
49297;BME280;35163;48.878;18.040;2024-01-15T12:57:44;96672.59;;;6.55;44.17
49297;BME280;35163;48.878;18.040;2024-01-15T13:00:13;96676.81;;;6.56;44.06
49297;BME280;35163;48.878;18.040;2024-01-15T13:02:43;96672.53;;;6.57;43.96
49297;BME280;35163;48.878;18.040;2024-01-15T13:05:11;96671.69;;;6.56;43.86
49297;BME280;35163;48.878;18.040;2024-01-15T13:07:40;96672.59;;;6.55;43.82
49297;BME280;35163;48.878;18.040;2024-01-15T13:10:07;96667.47;;;6.55;43.90